createdAt,value
2022-10-05T00:00:54.052Z,2.20
2022-10-05T00:03:26.239Z,2.20
2022-10-05T00:05:56.605Z,2.20
2022-10-05T00:08:31.614Z,2.60
2022-10-05T00:11:02.221Z,2.80
2022-10-05T00:13:34.410Z,2.30
2022-10-05T00:16:13.879Z,2.50
2022-10-05T00:18:47.460Z,2.10
2022-10-05T00:21:23.602Z,2.40
2022-10-05T00:23:55.460Z,2.60
2022-10-05T00:26:27.522Z,2.50
2022-10-05T00:28:58.280Z,2.20
2022-10-05T00:31:33.967Z,2.10
2022-10-05T00:34:04.392Z,2.30
2022-10-05T00:36:35.280Z,2.30
2022-10-05T00:39:05.821Z,2.40
2022-10-05T00:41:53.197Z,2.50
2022-10-05T00:44:41.066Z,2.10
2022-10-05T00:47:25.415Z,2.60
2022-10-05T00:50:18.947Z,2.30
2022-10-05T00:52:58.441Z,2.30
2022-10-05T00:55:40.231Z,2.70
2022-10-05T00:58:24.081Z,2.30
2022-10-05T01:01:07.179Z,2.40
2022-10-05T01:03:49.812Z,2.40
2022-10-05T01:06:27.515Z,2.30
2022-10-05T01:09:07.163Z,2.20
2022-10-05T01:11:44.778Z,2.30
2022-10-05T01:14:22.866Z,2.40
2022-10-05T01:16:59.427Z,2.30
2022-10-05T01:23:39.128Z,2.20
2022-10-05T01:26:29.874Z,2.40
2022-10-05T01:29:09.618Z,2.00
2022-10-05T01:31:48.910Z,2.30
2022-10-05T01:34:27.965Z,2.20
2022-10-05T01:37:05.558Z,2.30
2022-10-05T01:39:47.490Z,2.70
2022-10-05T01:42:27.510Z,2.10
2022-10-05T01:45:10.316Z,2.10
2022-10-05T01:47:46.367Z,2.30
2022-10-05T01:50:25.488Z,2.50
2022-10-05T01:53:05.477Z,2.60
2022-10-05T01:55:43.892Z,2.40
2022-10-05T01:58:26.902Z,2.60
2022-10-05T02:01:08.265Z,2.30
2022-10-05T02:03:44.364Z,2.40
2022-10-05T02:06:19.555Z,2.60
2022-10-05T02:08:53.551Z,2.30
2022-10-05T02:11:23.846Z,2.60
2022-10-05T02:14:00.204Z,2.30
2022-10-05T02:16:37.369Z,2.70
2022-10-05T02:19:17.036Z,2.30
2022-10-05T02:21:51.943Z,2.40
2022-10-05T02:24:26.066Z,2.30
2022-10-05T02:26:57.656Z,2.30
2022-10-05T02:29:34.287Z,2.00
2022-10-05T02:32:08.515Z,2.10
2022-10-05T02:34:41.203Z,2.40
2022-10-05T02:37:24.917Z,2.40
2022-10-05T02:40:09.306Z,2.80
2022-10-05T02:42:49.904Z,2.80
2022-10-05T02:45:29.474Z,2.40
2022-10-05T02:48:09.638Z,2.30
2022-10-05T02:50:51.240Z,2.30
2022-10-05T02:53:29.856Z,2.40
2022-10-05T02:56:14.455Z,2.00
2022-10-05T02:58:54.556Z,2.30
2022-10-05T03:01:31.511Z,2.30
2022-10-05T03:04:09.966Z,2.50
2022-10-05T03:06:48.147Z,2.50
2022-10-05T03:09:22.682Z,2.70
2022-10-05T03:12:07.279Z,2.30
2022-10-05T03:14:44.026Z,2.80
2022-10-05T03:17:19.064Z,2.10
2022-10-05T03:20:12.929Z,2.30
2022-10-05T03:22:51.717Z,2.10
2022-10-05T03:25:46.566Z,2.50
2022-10-05T03:28:21.562Z,2.60
2022-10-05T03:31:02.024Z,2.70
2022-10-05T03:33:43.555Z,2.00
2022-10-05T03:36:23.978Z,2.80
2022-10-05T03:39:03.551Z,2.40
2022-10-05T03:41:42.046Z,2.70
2022-10-05T03:44:23.759Z,2.20
2022-10-05T03:47:06.068Z,2.50
2022-10-05T03:49:48.888Z,2.50
2022-10-05T03:52:23.879Z,2.60
2022-10-05T03:54:58.930Z,2.90
2022-10-05T03:57:34.164Z,2.30
2022-10-05T04:00:13.694Z,2.70
2022-10-05T04:02:49.296Z,2.60
2022-10-05T04:05:22.414Z,2.60
2022-10-05T04:08:00.167Z,2.80
2022-10-05T04:10:34.335Z,3.50
2022-10-05T04:13:12.919Z,3.80
2022-10-05T04:15:49.138Z,2.50
2022-10-05T04:18:27.243Z,2.50
2022-10-05T04:21:02.775Z,2.80
2022-10-05T04:23:45.672Z,2.90
2022-10-05T04:26:27.897Z,2.30
2022-10-05T04:29:03.170Z,2.40
2022-10-05T04:31:46.070Z,3.10
2022-10-05T04:34:45.864Z,2.60
2022-10-05T04:37:23.130Z,3.00
2022-10-05T04:40:04.137Z,2.50
2022-10-05T04:42:39.615Z,2.40
2022-10-05T04:45:23.215Z,2.80
2022-10-05T04:48:10.204Z,2.50
2022-10-05T04:50:53.241Z,4.00
2022-10-05T04:53:32.463Z,3.70
2022-10-05T04:56:11.016Z,3.10
2022-10-05T04:58:58.465Z,2.90
2022-10-05T05:01:45.094Z,2.80
2022-10-05T05:04:51.485Z,2.70
2022-10-05T05:07:35.835Z,3.00
2022-10-05T05:10:36.404Z,3.20
2022-10-05T05:13:20.642Z,2.80
2022-10-05T05:16:00.250Z,3.00
2022-10-05T05:19:05.299Z,2.90
2022-10-05T05:21:46.551Z,3.00
2022-10-05T05:24:26.308Z,2.70
2022-10-05T05:27:11.247Z,2.80
2022-10-05T05:29:56.021Z,3.10
2022-10-05T05:32:40.329Z,3.30
2022-10-05T05:35:29.863Z,3.00
2022-10-05T05:38:14.321Z,2.90
2022-10-05T05:40:55.686Z,3.40
2022-10-05T05:43:31.860Z,3.10
2022-10-05T05:46:07.468Z,2.90
2022-10-05T05:48:42.175Z,3.20
2022-10-05T05:51:17.692Z,2.80
2022-10-05T05:53:51.683Z,3.20
2022-10-05T05:56:27.647Z,2.80
2022-10-05T05:59:04.042Z,3.00
2022-10-05T06:01:44.142Z,3.30
2022-10-05T06:04:18.425Z,3.70
2022-10-05T06:06:53.125Z,2.80
2022-10-05T06:09:27.039Z,3.20
2022-10-05T06:12:03.188Z,3.20
2022-10-05T06:14:38.340Z,3.40
2022-10-05T06:17:16.134Z,2.80
2022-10-05T06:22:22.297Z,3.10
2022-10-05T06:25:05.837Z,3.10
2022-10-05T06:27:58.739Z,2.60
2022-10-05T06:30:40.286Z,2.80
2022-10-05T06:33:24.111Z,3.10
2022-10-05T06:36:13.883Z,2.60
2022-10-05T06:39:23.634Z,3.10
2022-10-05T06:42:09.240Z,3.20
2022-10-05T06:44:45.940Z,3.20
2022-10-05T06:47:24.657Z,3.50
2022-10-05T06:50:04.448Z,3.10
2022-10-05T06:52:45.964Z,3.40
2022-10-05T06:55:24.383Z,3.10
2022-10-05T06:58:07.202Z,3.50
2022-10-05T07:00:45.469Z,3.30
2022-10-05T07:03:27.726Z,3.50
2022-10-05T07:06:11.787Z,3.40
2022-10-05T07:08:58.366Z,3.50
2022-10-05T07:11:49.057Z,3.40
2022-10-05T07:14:32.012Z,3.40
2022-10-05T07:17:18.314Z,3.30
2022-10-05T07:19:57.032Z,3.30
2022-10-05T07:22:42.898Z,3.30
2022-10-05T07:25:18.583Z,4.20
2022-10-05T07:27:55.038Z,3.50
2022-10-05T07:30:25.591Z,3.00
2022-10-05T07:33:02.771Z,3.50
2022-10-05T07:35:59.561Z,3.90
2022-10-05T07:38:37.295Z,3.30
2022-10-05T07:44:01.951Z,3.10
2022-10-05T07:46:45.012Z,3.20
2022-10-05T07:49:24.444Z,4.00
2022-10-05T07:52:01.497Z,3.70
2022-10-05T07:54:46.289Z,3.80
2022-10-05T07:57:28.028Z,3.40
2022-10-05T08:00:03.839Z,3.50
2022-10-05T08:02:42.954Z,3.20
2022-10-05T08:05:20.073Z,3.70
2022-10-05T08:07:58.265Z,4.00
2022-10-05T08:10:37.801Z,3.60
2022-10-05T08:13:17.580Z,3.60
2022-10-05T08:15:54.031Z,3.60
2022-10-05T08:18:38.835Z,4.60
2022-10-05T08:21:12.126Z,3.60
2022-10-05T08:23:48.774Z,3.70
2022-10-05T08:26:28.086Z,3.20
2022-10-05T08:29:13.800Z,3.30
2022-10-05T08:31:48.827Z,3.10
2022-10-05T08:34:27.512Z,3.70
2022-10-05T08:37:05.110Z,3.50
2022-10-05T08:39:41.109Z,3.30
2022-10-05T08:42:40.610Z,3.60
2022-10-05T08:45:45.402Z,3.50
2022-10-05T08:48:46.313Z,3.40
2022-10-05T08:51:44.038Z,3.80
2022-10-05T08:54:43.098Z,3.60
2022-10-05T08:57:35.668Z,4.00
2022-10-05T09:00:16.800Z,3.50
2022-10-05T09:06:21.733Z,3.90
2022-10-05T09:09:09.543Z,3.80
2022-10-05T09:11:45.186Z,3.40
2022-10-05T09:14:29.366Z,3.70
2022-10-05T09:17:21.011Z,3.90
2022-10-05T09:20:23.830Z,3.80
2022-10-05T09:23:14.693Z,3.60
2022-10-05T09:25:57.364Z,3.80
2022-10-05T09:28:40.322Z,3.70
2022-10-05T09:31:39.062Z,3.30
2022-10-05T09:34:57.894Z,3.90
2022-10-05T09:38:17.514Z,3.50
2022-10-05T09:41:20.882Z,3.50
2022-10-05T09:44:27.493Z,3.70
2022-10-05T09:47:28.854Z,3.30
2022-10-05T09:50:44.380Z,3.50
2022-10-05T09:53:41.815Z,3.20
2022-10-05T09:56:35.246Z,3.40
2022-10-05T09:59:26.093Z,3.50
2022-10-05T10:02:16.849Z,3.40
2022-10-05T10:05:16.074Z,3.40
2022-10-05T10:08:12.836Z,3.60
2022-10-05T10:11:02.600Z,3.50
2022-10-05T10:14:12.965Z,3.50
2022-10-05T10:17:13.927Z,3.40
2022-10-05T10:20:22.808Z,3.10
2022-10-05T10:23:27.756Z,3.00
2022-10-05T10:26:16.255Z,3.30
2022-10-05T10:32:46.792Z,3.10
2022-10-05T10:35:26.957Z,3.60
2022-10-05T10:38:24.580Z,3.30
2022-10-05T10:41:13.873Z,3.20
2022-10-05T10:44:04.240Z,5.90
2022-10-05T10:46:46.841Z,3.40
2022-10-05T10:49:35.185Z,2.80
2022-10-05T10:52:18.800Z,3.20
2022-10-05T10:55:20.238Z,3.40
2022-10-05T10:58:15.899Z,3.20
2022-10-05T11:00:54.732Z,3.00
2022-10-05T11:03:51.805Z,2.80
2022-10-05T11:06:35.642Z,3.00
2022-10-05T11:09:33.192Z,3.00
2022-10-05T11:12:28.960Z,3.30
2022-10-05T11:15:26.598Z,3.60
2022-10-05T11:18:09.946Z,3.30
2022-10-05T11:21:05.222Z,3.50
2022-10-05T11:24:16.378Z,3.40
2022-10-05T11:27:03.995Z,3.30
2022-10-05T11:29:53.318Z,3.50
2022-10-05T11:33:11.901Z,3.40
2022-10-05T11:36:09.731Z,3.10
2022-10-05T11:39:24.029Z,3.90
2022-10-05T11:42:20.421Z,3.90
2022-10-05T11:45:11.551Z,3.50
2022-10-05T11:47:54.358Z,3.40
2022-10-05T11:50:33.981Z,3.50
2022-10-05T11:53:12.085Z,3.30
2022-10-05T11:55:49.792Z,3.40
2022-10-05T11:58:27.486Z,3.60
2022-10-05T12:01:06.809Z,3.30
2022-10-05T12:03:54.309Z,3.30
2022-10-05T12:06:44.722Z,3.30
2022-10-05T12:09:27.924Z,3.10
2022-10-05T12:12:12.326Z,3.20
2022-10-05T12:14:51.906Z,3.30
2022-10-05T12:17:33.645Z,4.20
2022-10-05T12:20:14.125Z,3.80
2022-10-05T12:22:50.919Z,3.10
2022-10-05T12:25:26.638Z,2.90
2022-10-05T12:28:03.552Z,2.80
2022-10-05T12:31:07.566Z,2.90
2022-10-05T12:33:47.102Z,2.90
2022-10-05T12:36:22.422Z,3.00
2022-10-05T12:39:03.520Z,2.70
2022-10-05T12:41:40.465Z,3.30
2022-10-05T12:44:20.167Z,3.00
2022-10-05T12:47:05.203Z,3.20
2022-10-05T12:49:47.472Z,2.90
2022-10-05T12:52:31.571Z,2.80
2022-10-05T12:55:08.308Z,2.70
2022-10-05T12:57:48.190Z,2.60
2022-10-05T13:00:23.188Z,3.50
2022-10-05T13:03:01.142Z,3.30
2022-10-05T13:08:14.513Z,2.40
2022-10-05T13:10:50.429Z,3.10
2022-10-05T13:13:38.830Z,2.60
2022-10-05T13:16:18.928Z,2.50
2022-10-05T13:19:01.887Z,2.80
2022-10-05T13:21:40.931Z,2.80
2022-10-05T13:24:21.340Z,2.40
2022-10-05T13:26:56.262Z,2.50
2022-10-05T13:29:33.118Z,2.60
2022-10-05T13:32:15.284Z,2.40
2022-10-05T13:34:55.508Z,2.80
2022-10-05T13:37:35.327Z,2.50
2022-10-05T13:40:21.752Z,2.70
2022-10-05T13:43:00.459Z,2.40
2022-10-05T13:45:40.552Z,2.40
2022-10-05T13:48:23.131Z,2.50
2022-10-05T13:51:03.898Z,2.20
2022-10-05T13:53:46.402Z,2.70
2022-10-05T13:56:22.278Z,2.20
2022-10-05T13:58:59.620Z,2.60
2022-10-05T14:01:36.422Z,2.40
2022-10-05T14:04:16.069Z,2.50
2022-10-05T14:06:47.428Z,2.70
2022-10-05T14:09:31.422Z,2.60
2022-10-05T14:12:20.630Z,2.70
2022-10-05T14:14:53.928Z,2.50
2022-10-05T14:17:40.241Z,2.40
2022-10-05T14:20:26.963Z,2.60
2022-10-05T14:23:01.419Z,2.40
2022-10-05T14:25:46.542Z,2.50
2022-10-05T14:28:29.678Z,2.40
2022-10-05T14:31:02.201Z,2.60
2022-10-05T14:33:35.000Z,2.60
2022-10-05T14:36:07.667Z,2.30
2022-10-05T14:38:57.772Z,2.20
2022-10-05T14:41:31.690Z,2.10
2022-10-05T14:44:05.601Z,2.50
2022-10-05T14:46:39.788Z,2.50
2022-10-05T14:49:24.218Z,2.30
2022-10-05T14:51:56.159Z,2.10
2022-10-05T14:54:36.115Z,2.10
2022-10-05T14:57:18.844Z,2.20
2022-10-05T15:00:16.496Z,2.10
2022-10-05T15:03:14.955Z,2.50
2022-10-05T15:05:49.820Z,2.20
2022-10-05T15:08:42.538Z,2.20
2022-10-05T15:11:22.908Z,2.30
2022-10-05T15:13:54.629Z,2.00
2022-10-05T15:16:28.915Z,2.00
2022-10-05T15:19:08.395Z,2.30
2022-10-05T15:21:47.513Z,1.90
2022-10-05T15:24:26.373Z,2.10
2022-10-05T15:27:00.395Z,2.10
2022-10-05T15:29:54.960Z,1.90
2022-10-05T15:32:38.066Z,2.10
2022-10-05T15:35:43.773Z,3.30
2022-10-05T15:38:25.788Z,2.10
2022-10-05T15:41:14.918Z,2.20
2022-10-05T15:44:00.116Z,3.40
2022-10-05T15:46:37.209Z,3.10
2022-10-05T15:49:21.399Z,2.30
2022-10-05T15:52:01.326Z,2.60
2022-10-05T15:55:16.542Z,2.10
2022-10-05T15:57:54.395Z,2.20
2022-10-05T16:00:26.521Z,2.00
2022-10-05T16:03:08.681Z,2.80
2022-10-05T16:06:04.499Z,3.30
2022-10-05T16:09:02.626Z,2.40
2022-10-05T16:11:49.249Z,2.40
2022-10-05T16:14:34.489Z,2.40
2022-10-05T16:17:22.101Z,2.50
2022-10-05T16:20:04.130Z,2.30
2022-10-05T16:22:45.088Z,2.60
2022-10-05T16:25:22.519Z,2.30
2022-10-05T16:28:13.611Z,1.90
2022-10-05T16:30:53.519Z,2.30
2022-10-05T16:33:33.805Z,2.30
2022-10-05T16:36:13.650Z,2.50
2022-10-05T16:38:53.711Z,2.30
2022-10-05T16:41:32.632Z,2.50
2022-10-05T16:44:15.364Z,2.20
2022-10-05T16:46:51.830Z,2.40
2022-10-05T16:49:38.175Z,2.50
2022-10-05T16:52:15.350Z,2.30
2022-10-05T16:54:49.666Z,2.70
2022-10-05T16:57:24.240Z,2.30
2022-10-05T17:00:16.601Z,2.40
2022-10-05T17:03:01.165Z,2.60
2022-10-05T17:05:47.962Z,2.10
2022-10-05T17:08:36.781Z,2.30
2022-10-05T17:11:21.274Z,2.40
2022-10-05T17:14:08.513Z,2.60
2022-10-05T17:16:54.601Z,2.30
2022-10-05T17:19:40.133Z,2.60
2022-10-05T17:22:22.682Z,2.80
2022-10-05T17:25:00.057Z,2.60
2022-10-05T17:27:36.497Z,2.50
2022-10-05T17:30:37.599Z,2.40
2022-10-05T17:33:22.427Z,2.50
2022-10-05T17:36:18.382Z,2.60
2022-10-05T17:39:12.229Z,2.50
2022-10-05T17:41:43.058Z,2.50
2022-10-05T17:44:26.450Z,2.40
2022-10-05T17:46:59.243Z,2.40
2022-10-05T17:50:09.365Z,2.50
2022-10-05T17:53:02.543Z,2.50
2022-10-05T17:56:03.020Z,4.00
2022-10-05T17:59:03.424Z,2.50
2022-10-05T18:01:38.977Z,3.10
2022-10-05T18:04:45.016Z,2.70
2022-10-05T18:07:21.910Z,2.60
2022-10-05T18:10:14.401Z,3.10
2022-10-05T18:12:49.035Z,2.90
2022-10-05T18:15:50.604Z,2.90
2022-10-05T18:18:58.604Z,2.80
2022-10-05T18:21:35.865Z,2.90
2022-10-05T18:24:45.274Z,2.90
2022-10-05T18:27:34.247Z,2.70
2022-10-05T18:30:18.969Z,2.70
2022-10-05T18:33:07.538Z,2.90
2022-10-05T18:35:50.383Z,3.10
2022-10-05T18:38:44.487Z,2.80
2022-10-05T18:41:31.609Z,2.70
2022-10-05T18:44:19.425Z,2.90
2022-10-05T18:46:55.667Z,3.10
2022-10-05T18:49:44.060Z,3.10
2022-10-05T18:52:22.010Z,2.70
2022-10-05T18:55:03.990Z,3.10
2022-10-05T18:57:51.147Z,2.70
2022-10-05T19:00:23.786Z,2.70
2022-10-05T19:02:59.032Z,2.60
2022-10-05T19:05:48.661Z,2.80
2022-10-05T19:08:32.810Z,2.60
2022-10-05T19:11:14.337Z,2.60
2022-10-05T19:13:53.923Z,2.80
2022-10-05T19:16:49.249Z,2.50
2022-10-05T19:19:39.649Z,2.90
2022-10-05T19:22:20.199Z,2.50
2022-10-05T19:25:05.440Z,2.50
2022-10-05T19:27:49.799Z,2.60
2022-10-05T19:30:27.143Z,2.50
2022-10-05T19:33:14.759Z,2.70
2022-10-05T19:35:58.203Z,2.30
2022-10-05T19:38:42.457Z,2.50
2022-10-05T19:41:18.599Z,2.50
2022-10-05T19:44:02.240Z,2.70
2022-10-05T19:46:50.477Z,2.80
2022-10-05T19:49:38.207Z,2.50
2022-10-05T19:54:43.452Z,2.60
2022-10-05T19:57:19.025Z,2.50
2022-10-05T19:59:50.029Z,2.30
2022-10-05T20:02:26.070Z,2.80
2022-10-05T20:05:06.417Z,4.50
2022-10-05T20:07:37.027Z,3.50
2022-10-05T20:10:29.280Z,3.00
2022-10-05T20:13:02.554Z,2.20
2022-10-05T20:15:52.106Z,2.40
2022-10-05T20:18:58.583Z,2.50
2022-10-05T20:21:59.870Z,2.40
2022-10-05T20:24:32.074Z,2.80
2022-10-05T20:27:05.828Z,2.80
2022-10-05T20:29:38.315Z,2.20
2022-10-05T20:32:12.119Z,2.60
2022-10-05T20:34:44.419Z,2.60
2022-10-05T20:37:16.420Z,2.40
2022-10-05T20:39:47.347Z,2.40
2022-10-05T20:42:18.224Z,2.70
2022-10-05T20:44:54.328Z,2.20
2022-10-05T20:47:27.747Z,2.50
2022-10-05T20:49:58.076Z,2.40
2022-10-05T20:52:28.724Z,2.50
2022-10-05T20:54:59.333Z,2.50
2022-10-05T20:57:29.678Z,2.50
2022-10-05T21:00:00.144Z,2.20
2022-10-05T21:02:30.463Z,2.30
2022-10-05T21:05:00.944Z,2.20
2022-10-05T21:07:34.061Z,2.30
2022-10-05T21:10:05.695Z,2.10
2022-10-05T21:12:36.416Z,2.10
2022-10-05T21:15:10.840Z,2.10
2022-10-05T21:17:41.190Z,2.50
2022-10-05T21:20:12.945Z,2.10
2022-10-05T21:22:43.997Z,2.20
2022-10-05T21:25:14.853Z,2.60
2022-10-05T21:27:46.359Z,2.10
2022-10-05T21:30:17.304Z,2.40
2022-10-05T21:32:48.012Z,2.40
2022-10-05T21:35:19.082Z,2.40
2022-10-05T21:37:50.172Z,2.10
2022-10-05T21:40:20.964Z,2.50
2022-10-05T21:42:51.592Z,2.50
2022-10-05T21:45:22.229Z,2.90
2022-10-05T21:47:52.984Z,9.50
2022-10-05T21:50:23.705Z,4.60
2022-10-05T21:52:54.727Z,2.30
2022-10-05T21:55:25.131Z,2.40
2022-10-05T21:57:56.800Z,2.40
2022-10-05T22:00:27.136Z,2.40
2022-10-05T22:02:57.599Z,2.50
2022-10-05T22:05:28.668Z,2.20
2022-10-05T22:07:59.185Z,2.50
2022-10-05T22:10:29.522Z,2.40
2022-10-05T22:13:03.633Z,2.30
2022-10-05T22:15:34.208Z,2.20
2022-10-05T22:18:04.798Z,2.30
2022-10-05T22:20:37.037Z,2.30
2022-10-05T22:23:07.654Z,2.40
2022-10-05T22:25:38.576Z,2.60
2022-10-05T22:28:12.244Z,2.60
2022-10-05T22:30:43.856Z,2.20
2022-10-05T22:33:14.658Z,2.40
2022-10-05T22:35:45.266Z,2.10
2022-10-05T22:38:15.654Z,2.30
2022-10-05T22:40:45.960Z,2.40
2022-10-05T22:43:16.382Z,2.30
2022-10-05T22:45:47.136Z,2.60
2022-10-05T22:48:17.569Z,2.50
2022-10-05T22:50:48.863Z,2.50
2022-10-05T22:53:19.438Z,2.80
2022-10-05T22:55:50.076Z,2.50
2022-10-05T22:58:20.993Z,2.70
2022-10-05T23:00:58.378Z,2.50
2022-10-05T23:03:29.237Z,3.00
2022-10-05T23:06:03.133Z,2.50
2022-10-05T23:08:34.279Z,2.40
2022-10-05T23:11:06.043Z,2.50
2022-10-05T23:13:36.424Z,2.60
2022-10-05T23:16:11.604Z,2.20
2022-10-05T23:18:43.127Z,2.10
2022-10-05T23:21:13.687Z,2.20
2022-10-05T23:23:47.313Z,2.20
2022-10-05T23:26:19.210Z,2.10
2022-10-05T23:28:50.264Z,2.20
2022-10-05T23:31:22.681Z,2.10
2022-10-05T23:33:54.017Z,2.10
2022-10-05T23:36:26.472Z,2.10
2022-10-05T23:38:57.185Z,2.30
2022-10-05T23:41:27.615Z,2.20
2022-10-05T23:43:57.943Z,2.00
2022-10-05T23:46:28.351Z,2.00
2022-10-05T23:48:58.855Z,2.00
2022-10-05T23:51:29.558Z,1.80
2022-10-05T23:53:59.870Z,1.90
2022-10-05T23:56:31.197Z,1.70
2022-10-05T23:59:01.580Z,1.80
